sensor_id;sensor_type;location;lat;lon;timestamp;P1;durP1;ratioP1;P2;durP2;ratioP2
28483;SDS011;15704;48.834;8.736;2023-09-12T00:00:50;13.93;;;5.20;;
28483;SDS011;15704;48.834;8.736;2023-09-12T00:03:20;15.10;;;5.88;;
28483;SDS011;15704;48.834;8.736;2023-09-12T00:05:55;18.88;;;5.60;;
28483;SDS011;15704;48.834;8.736;2023-09-12T00:08:23;15.10;;;5.57;;
28483;SDS011;15704;48.834;8.736;2023-09-12T00:13:26;17.92;;;5.45;;
28483;SDS011;15704;48.834;8.736;2023-09-12T00:15:53;15.50;;;5.63;;
28483;SDS011;15704;48.834;8.736;2023-09-12T00:18:20;13.38;;;5.35;;
28483;SDS011;15704;48.834;8.736;2023-09-12T00:20:47;18.55;;;5.35;;
28483;SDS011;15704;48.834;8.736;2023-09-12T00:23:14;15.82;;;5.28;;
28483;SDS011;15704;48.834;8.736;2023-09-12T00:25:41;11.00;;;5.30;;
28483;SDS011;15704;48.834;8.736;2023-09-12T00:28:08;18.33;;;5.25;;
28483;SDS011;15704;48.834;8.736;2023-09-12T00:30:34;15.15;;;5.38;;
28483;SDS011;15704;48.834;8.736;2023-09-12T00:33:01;18.77;;;5.45;;
28483;SDS011;15704;48.834;8.736;2023-09-12T00:35:28;11.77;;;5.45;;
28483;SDS011;15704;48.834;8.736;2023-09-12T00:37:55;17.58;;;5.60;;
28483;SDS011;15704;48.834;8.736;2023-09-12T00:40:22;15.90;;;6.45;;
28483;SDS011;15704;48.834;8.736;2023-09-12T00:42:49;15.05;;;5.70;;
28483;SDS011;15704;48.834;8.736;2023-09-12T00:45:16;12.90;;;5.68;;
28483;SDS011;15704;48.834;8.736;2023-09-12T00:47:43;12.18;;;5.20;;
28483;SDS011;15704;48.834;8.736;2023-09-12T00:50:10;13.77;;;5.55;;
28483;SDS011;15704;48.834;8.736;2023-09-12T00:52:37;10.65;;;5.07;;
28483;SDS011;15704;48.834;8.736;2023-09-12T00:55:05;19.23;;;5.15;;
28483;SDS011;15704;48.834;8.736;2023-09-12T00:57:33;14.57;;;4.68;;
28483;SDS011;15704;48.834;8.736;2023-09-12T01:00:04;12.95;;;5.22;;
28483;SDS011;15704;48.834;8.736;2023-09-12T01:02:40;10.57;;;5.10;;
28483;SDS011;15704;48.834;8.736;2023-09-12T01:05:08;13.57;;;5.00;;
28483;SDS011;15704;48.834;8.736;2023-09-12T01:07:37;13.90;;;5.10;;
28483;SDS011;15704;48.834;8.736;2023-09-12T01:10:05;21.02;;;5.40;;
28483;SDS011;15704;48.834;8.736;2023-09-12T01:12:32;12.95;;;4.80;;
28483;SDS011;15704;48.834;8.736;2023-09-12T01:14:59;22.83;;;6.28;;
28483;SDS011;15704;48.834;8.736;2023-09-12T01:17:26;15.95;;;5.80;;
28483;SDS011;15704;48.834;8.736;2023-09-12T01:19:54;15.70;;;5.63;;
28483;SDS011;15704;48.834;8.736;2023-09-12T01:27:26;17.58;;;5.70;;
28483;SDS011;15704;48.834;8.736;2023-09-12T01:29:59;21.98;;;5.90;;
28483;SDS011;15704;48.834;8.736;2023-09-12T01:32:29;12.43;;;5.25;;
28483;SDS011;15704;48.834;8.736;2023-09-12T01:34:58;7.90;;;5.05;;
28483;SDS011;15704;48.834;8.736;2023-09-12T01:37:26;22.45;;;5.63;;
28483;SDS011;15704;48.834;8.736;2023-09-12T01:39:53;12.07;;;5.07;;
28483;SDS011;15704;48.834;8.736;2023-09-12T01:42:20;20.83;;;5.15;;
28483;SDS011;15704;48.834;8.736;2023-09-12T01:44:56;16.35;;;5.65;;
28483;SDS011;15704;48.834;8.736;2023-09-12T01:47:24;15.75;;;5.40;;
28483;SDS011;15704;48.834;8.736;2023-09-12T01:49:52;12.10;;;5.53;;
28483;SDS011;15704;48.834;8.736;2023-09-12T01:52:23;11.43;;;4.80;;
28483;SDS011;15704;48.834;8.736;2023-09-12T01:54:52;14.82;;;5.70;;
28483;SDS011;15704;48.834;8.736;2023-09-12T01:57:21;10.07;;;4.88;;
28483;SDS011;15704;48.834;8.736;2023-09-12T01:59:50;14.63;;;5.70;;
28483;SDS011;15704;48.834;8.736;2023-09-12T02:02:17;13.10;;;4.90;;
28483;SDS011;15704;48.834;8.736;2023-09-12T02:07:33;23.73;;;6.38;;
28483;SDS011;15704;48.834;8.736;2023-09-12T02:10:02;21.73;;;5.15;;
28483;SDS011;15704;48.834;8.736;2023-09-12T02:12:31;16.65;;;5.32;;
28483;SDS011;15704;48.834;8.736;2023-09-12T02:14:58;16.55;;;5.90;;
28483;SDS011;15704;48.834;8.736;2023-09-12T02:17:25;16.27;;;5.20;;
28483;SDS011;15704;48.834;8.736;2023-09-12T02:19:52;11.20;;;4.97;;
28483;SDS011;15704;48.834;8.736;2023-09-12T02:22:19;14.15;;;5.35;;
28483;SDS011;15704;48.834;8.736;2023-09-12T02:24:46;16.75;;;4.82;;
28483;SDS011;15704;48.834;8.736;2023-09-12T02:27:13;15.57;;;5.53;;
28483;SDS011;15704;48.834;8.736;2023-09-12T02:29:40;10.40;;;5.32;;
28483;SDS011;15704;48.834;8.736;2023-09-12T02:32:08;24.23;;;5.97;;
28483;SDS011;15704;48.834;8.736;2023-09-12T02:34:35;12.32;;;6.22;;
28483;SDS011;15704;48.834;8.736;2023-09-12T02:37:02;17.20;;;5.85;;
28483;SDS011;15704;48.834;8.736;2023-09-12T02:39:29;12.57;;;4.93;;
28483;SDS011;15704;48.834;8.736;2023-09-12T02:41:55;14.45;;;4.97;;
28483;SDS011;15704;48.834;8.736;2023-09-12T02:44:22;20.90;;;5.68;;
28483;SDS011;15704;48.834;8.736;2023-09-12T02:46:50;14.85;;;4.80;;
28483;SDS011;15704;48.834;8.736;2023-09-12T02:49:17;16.88;;;5.32;;
28483;SDS011;15704;48.834;8.736;2023-09-12T02:51:44;12.80;;;5.65;;
28483;SDS011;15704;48.834;8.736;2023-09-12T02:54:12;9.02;;;4.80;;
28483;SDS011;15704;48.834;8.736;2023-09-12T02:56:39;17.67;;;5.35;;
28483;SDS011;15704;48.834;8.736;2023-09-12T02:59:05;15.30;;;5.13;;
28483;SDS011;15704;48.834;8.736;2023-09-12T03:01:32;16.15;;;5.20;;
28483;SDS011;15704;48.834;8.736;2023-09-12T03:03:59;7.18;;;4.78;;
28483;SDS011;15704;48.834;8.736;2023-09-12T03:06:28;18.58;;;5.68;;
28483;SDS011;15704;48.834;8.736;2023-09-12T03:08:55;17.27;;;5.15;;
28483;SDS011;15704;48.834;8.736;2023-09-12T03:11:22;14.02;;;5.13;;
28483;SDS011;15704;48.834;8.736;2023-09-12T03:13:49;14.43;;;5.10;;
28483;SDS011;15704;48.834;8.736;2023-09-12T03:16:15;18.98;;;5.43;;
28483;SDS011;15704;48.834;8.736;2023-09-12T03:18:42;10.68;;;5.45;;
28483;SDS011;15704;48.834;8.736;2023-09-12T03:21:09;20.25;;;5.90;;
28483;SDS011;15704;48.834;8.736;2023-09-12T03:23:36;12.15;;;4.93;;
28483;SDS011;15704;48.834;8.736;2023-09-12T03:26:03;13.65;;;4.95;;
28483;SDS011;15704;48.834;8.736;2023-09-12T03:33:52;18.73;;;5.55;;
28483;SDS011;15704;48.834;8.736;2023-09-12T03:39:00;18.13;;;6.35;;
28483;SDS011;15704;48.834;8.736;2023-09-12T03:41:27;11.25;;;5.45;;
28483;SDS011;15704;48.834;8.736;2023-09-12T03:43:54;16.35;;;5.25;;
28483;SDS011;15704;48.834;8.736;2023-09-12T03:46:21;19.92;;;6.38;;
28483;SDS011;15704;48.834;8.736;2023-09-12T03:48:48;21.95;;;5.68;;
28483;SDS011;15704;48.834;8.736;2023-09-12T03:51:15;21.60;;;5.72;;
28483;SDS011;15704;48.834;8.736;2023-09-12T03:53:42;13.93;;;5.40;;
28483;SDS011;15704;48.834;8.736;2023-09-12T03:56:09;11.93;;;5.80;;
28483;SDS011;15704;48.834;8.736;2023-09-12T03:58:39;18.13;;;5.25;;
28483;SDS011;15704;48.834;8.736;2023-09-12T04:01:06;9.98;;;5.78;;
28483;SDS011;15704;48.834;8.736;2023-09-12T04:03:33;9.07;;;5.05;;
28483;SDS011;15704;48.834;8.736;2023-09-12T04:06:00;13.95;;;5.20;;
28483;SDS011;15704;48.834;8.736;2023-09-12T04:08:27;11.73;;;5.50;;
28483;SDS011;15704;48.834;8.736;2023-09-12T04:10:53;17.05;;;5.60;;
28483;SDS011;15704;48.834;8.736;2023-09-12T04:13:20;18.70;;;5.53;;
28483;SDS011;15704;48.834;8.736;2023-09-12T04:15:47;15.43;;;5.35;;
28483;SDS011;15704;48.834;8.736;2023-09-12T04:18:14;12.77;;;5.60;;
28483;SDS011;15704;48.834;8.736;2023-09-12T04:20:40;15.38;;;5.60;;
28483;SDS011;15704;48.834;8.736;2023-09-12T04:23:07;10.13;;;5.30;;
28483;SDS011;15704;48.834;8.736;2023-09-12T04:25:34;10.45;;;5.38;;
28483;SDS011;15704;48.834;8.736;2023-09-12T04:28:01;16.20;;;5.65;;
28483;SDS011;15704;48.834;8.736;2023-09-12T04:30:30;11.98;;;5.13;;
28483;SDS011;15704;48.834;8.736;2023-09-12T04:32:57;15.48;;;5.82;;
28483;SDS011;15704;48.834;8.736;2023-09-12T04:35:27;12.75;;;6.43;;
28483;SDS011;15704;48.834;8.736;2023-09-12T04:37:54;15.65;;;6.10;;
28483;SDS011;15704;48.834;8.736;2023-09-12T04:40:20;17.25;;;5.82;;
28483;SDS011;15704;48.834;8.736;2023-09-12T04:42:47;13.13;;;5.70;;
28483;SDS011;15704;48.834;8.736;2023-09-12T04:45:14;19.10;;;7.38;;
28483;SDS011;15704;48.834;8.736;2023-09-12T04:47:41;14.65;;;5.88;;
28483;SDS011;15704;48.834;8.736;2023-09-12T04:50:08;9.98;;;5.72;;
28483;SDS011;15704;48.834;8.736;2023-09-12T04:52:35;11.40;;;5.32;;
28483;SDS011;15704;48.834;8.736;2023-09-12T04:55:01;11.63;;;5.50;;
28483;SDS011;15704;48.834;8.736;2023-09-12T04:57:29;15.75;;;5.97;;
28483;SDS011;15704;48.834;8.736;2023-09-12T04:59:57;17.23;;;6.93;;
28483;SDS011;15704;48.834;8.736;2023-09-12T05:02:27;15.82;;;6.13;;
28483;SDS011;15704;48.834;8.736;2023-09-12T05:04:54;19.15;;;6.05;;
28483;SDS011;15704;48.834;8.736;2023-09-12T05:07:23;16.02;;;5.72;;
28483;SDS011;15704;48.834;8.736;2023-09-12T05:09:50;10.93;;;5.70;;
28483;SDS011;15704;48.834;8.736;2023-09-12T05:12:17;13.48;;;5.80;;
28483;SDS011;15704;48.834;8.736;2023-09-12T05:14:43;12.52;;;5.78;;
28483;SDS011;15704;48.834;8.736;2023-09-12T05:17:10;18.58;;;7.18;;
28483;SDS011;15704;48.834;8.736;2023-09-12T05:19:37;15.60;;;7.03;;
28483;SDS011;15704;48.834;8.736;2023-09-12T05:22:04;20.30;;;6.93;;
28483;SDS011;15704;48.834;8.736;2023-09-12T05:24:30;12.75;;;6.57;;
28483;SDS011;15704;48.834;8.736;2023-09-12T05:26:57;17.35;;;6.03;;
28483;SDS011;15704;48.834;8.736;2023-09-12T05:29:24;16.60;;;6.05;;
28483;SDS011;15704;48.834;8.736;2023-09-12T05:31:50;9.05;;;5.72;;
28483;SDS011;15704;48.834;8.736;2023-09-12T05:34:18;10.63;;;5.78;;
28483;SDS011;15704;48.834;8.736;2023-09-12T05:36:44;10.73;;;5.90;;
28483;SDS011;15704;48.834;8.736;2023-09-12T05:39:11;10.95;;;5.53;;
28483;SDS011;15704;48.834;8.736;2023-09-12T05:41:40;14.77;;;6.13;;
28483;SDS011;15704;48.834;8.736;2023-09-12T05:44:06;17.20;;;6.32;;
28483;SDS011;15704;48.834;8.736;2023-09-12T05:46:33;8.25;;;5.45;;
28483;SDS011;15704;48.834;8.736;2023-09-12T05:49:00;11.27;;;5.63;;
28483;SDS011;15704;48.834;8.736;2023-09-12T05:51:27;11.13;;;6.00;;
28483;SDS011;15704;48.834;8.736;2023-09-12T05:53:54;11.02;;;5.60;;
28483;SDS011;15704;48.834;8.736;2023-09-12T05:56:20;13.10;;;6.20;;
28483;SDS011;15704;48.834;8.736;2023-09-12T05:58:47;16.10;;;5.88;;
28483;SDS011;15704;48.834;8.736;2023-09-12T06:01:16;15.45;;;6.85;;
28483;SDS011;15704;48.834;8.736;2023-09-12T06:03:43;13.35;;;5.47;;
28483;SDS011;15704;48.834;8.736;2023-09-12T06:06:10;11.68;;;5.90;;
28483;SDS011;15704;48.834;8.736;2023-09-12T06:08:38;9.90;;;6.32;;
28483;SDS011;15704;48.834;8.736;2023-09-12T06:11:04;13.73;;;5.88;;
28483;SDS011;15704;48.834;8.736;2023-09-12T06:13:31;16.48;;;7.07;;
28483;SDS011;15704;48.834;8.736;2023-09-12T06:15:59;12.45;;;6.10;;
28483;SDS011;15704;48.834;8.736;2023-09-12T06:18:26;11.20;;;6.40;;
28483;SDS011;15704;48.834;8.736;2023-09-12T06:20:56;19.63;;;6.28;;
28483;SDS011;15704;48.834;8.736;2023-09-12T06:23:23;23.35;;;6.95;;
28483;SDS011;15704;48.834;8.736;2023-09-12T06:25:50;12.63;;;6.53;;
28483;SDS011;15704;48.834;8.736;2023-09-12T06:28:27;23.02;;;7.35;;
28483;SDS011;15704;48.834;8.736;2023-09-12T06:30:55;13.13;;;7.25;;
28483;SDS011;15704;48.834;8.736;2023-09-12T06:33:24;15.77;;;6.85;;
28483;SDS011;15704;48.834;8.736;2023-09-12T06:35:51;36.47;;;7.30;;
28483;SDS011;15704;48.834;8.736;2023-09-12T06:38:22;11.80;;;7.25;;
28483;SDS011;15704;48.834;8.736;2023-09-12T06:40:49;16.95;;;6.45;;
28483;SDS011;15704;48.834;8.736;2023-09-12T06:43:16;14.18;;;6.15;;
28483;SDS011;15704;48.834;8.736;2023-09-12T06:45:43;12.93;;;6.88;;
28483;SDS011;15704;48.834;8.736;2023-09-12T06:48:10;21.58;;;8.20;;
28483;SDS011;15704;48.834;8.736;2023-09-12T06:50:37;18.65;;;7.93;;
28483;SDS011;15704;48.834;8.736;2023-09-12T06:53:05;10.57;;;6.55;;
28483;SDS011;15704;48.834;8.736;2023-09-12T06:55:36;11.35;;;6.00;;
28483;SDS011;15704;48.834;8.736;2023-09-12T06:58:03;11.90;;;6.20;;
28483;SDS011;15704;48.834;8.736;2023-09-12T07:00:30;10.18;;;6.22;;
28483;SDS011;15704;48.834;8.736;2023-09-12T07:02:57;13.88;;;5.88;;
28483;SDS011;15704;48.834;8.736;2023-09-12T07:05:24;9.85;;;6.05;;
28483;SDS011;15704;48.834;8.736;2023-09-12T07:07:52;11.18;;;5.63;;
28483;SDS011;15704;48.834;8.736;2023-09-12T07:10:18;11.35;;;5.93;;
28483;SDS011;15704;48.834;8.736;2023-09-12T07:15:18;12.60;;;5.93;;
28483;SDS011;15704;48.834;8.736;2023-09-12T07:17:46;9.38;;;5.88;;
28483;SDS011;15704;48.834;8.736;2023-09-12T07:20:13;10.45;;;5.43;;
28483;SDS011;15704;48.834;8.736;2023-09-12T07:22:41;9.57;;;5.35;;
28483;SDS011;15704;48.834;8.736;2023-09-12T07:25:08;9.23;;;5.55;;
28483;SDS011;15704;48.834;8.736;2023-09-12T07:27:38;14.52;;;5.15;;
28483;SDS011;15704;48.834;8.736;2023-09-12T07:30:05;10.30;;;5.78;;
28483;SDS011;15704;48.834;8.736;2023-09-12T07:32:32;15.02;;;5.80;;
28483;SDS011;15704;48.834;8.736;2023-09-12T07:34:59;14.82;;;6.15;;
28483;SDS011;15704;48.834;8.736;2023-09-12T07:37:26;16.23;;;6.15;;
28483;SDS011;15704;48.834;8.736;2023-09-12T07:39:53;15.70;;;6.30;;
28483;SDS011;15704;48.834;8.736;2023-09-12T07:42:23;13.38;;;5.47;;
28483;SDS011;15704;48.834;8.736;2023-09-12T07:44:50;11.07;;;5.10;;
28483;SDS011;15704;48.834;8.736;2023-09-12T07:47:17;10.00;;;5.88;;
28483;SDS011;15704;48.834;8.736;2023-09-12T07:49:45;14.95;;;5.95;;
28483;SDS011;15704;48.834;8.736;2023-09-12T07:52:11;11.07;;;6.50;;
28483;SDS011;15704;48.834;8.736;2023-09-12T07:54:38;10.90;;;5.82;;
28483;SDS011;15704;48.834;8.736;2023-09-12T07:57:05;8.55;;;4.80;;
28483;SDS011;15704;48.834;8.736;2023-09-12T07:59:32;13.90;;;5.72;;
28483;SDS011;15704;48.834;8.736;2023-09-12T08:01:59;9.90;;;5.60;;
28483;SDS011;15704;48.834;8.736;2023-09-12T08:04:26;11.18;;;5.80;;
28483;SDS011;15704;48.834;8.736;2023-09-12T08:06:53;9.07;;;5.47;;
28483;SDS011;15704;48.834;8.736;2023-09-12T08:09:23;12.60;;;5.50;;
28483;SDS011;15704;48.834;8.736;2023-09-12T08:12:10;11.07;;;5.50;;
28483;SDS011;15704;48.834;8.736;2023-09-12T08:14:37;14.77;;;5.47;;
28483;SDS011;15704;48.834;8.736;2023-09-12T08:17:04;11.25;;;6.18;;
28483;SDS011;15704;48.834;8.736;2023-09-12T08:19:32;11.73;;;6.45;;
28483;SDS011;15704;48.834;8.736;2023-09-12T08:21:59;13.50;;;5.63;;
28483;SDS011;15704;48.834;8.736;2023-09-12T08:24:25;9.18;;;5.35;;
28483;SDS011;15704;48.834;8.736;2023-09-12T08:26:52;20.83;;;5.63;;
28483;SDS011;15704;48.834;8.736;2023-09-12T08:29:20;19.55;;;5.93;;
28483;SDS011;15704;48.834;8.736;2023-09-12T08:31:47;9.95;;;4.70;;
28483;SDS011;15704;48.834;8.736;2023-09-12T08:34:14;20.83;;;5.40;;
28483;SDS011;15704;48.834;8.736;2023-09-12T08:36:41;16.00;;;5.43;;
28483;SDS011;15704;48.834;8.736;2023-09-12T08:39:11;8.82;;;4.97;;
28483;SDS011;15704;48.834;8.736;2023-09-12T08:41:40;14.32;;;4.90;;
28483;SDS011;15704;48.834;8.736;2023-09-12T08:44:06;13.20;;;5.18;;
28483;SDS011;15704;48.834;8.736;2023-09-12T08:46:33;12.82;;;5.13;;
28483;SDS011;15704;48.834;8.736;2023-09-12T08:49:00;14.05;;;5.82;;
28483;SDS011;15704;48.834;8.736;2023-09-12T08:51:29;10.23;;;5.47;;
28483;SDS011;15704;48.834;8.736;2023-09-12T08:53:55;7.78;;;4.70;;
28483;SDS011;15704;48.834;8.736;2023-09-12T08:56:22;11.98;;;5.45;;
28483;SDS011;15704;48.834;8.736;2023-09-12T08:58:50;9.77;;;5.30;;
28483;SDS011;15704;48.834;8.736;2023-09-12T09:01:18;14.73;;;5.03;;
28483;SDS011;15704;48.834;8.736;2023-09-12T09:03:46;12.98;;;5.63;;
28483;SDS011;15704;48.834;8.736;2023-09-12T09:06:14;12.73;;;5.22;;
28483;SDS011;15704;48.834;8.736;2023-09-12T09:08:43;17.13;;;5.43;;
28483;SDS011;15704;48.834;8.736;2023-09-12T09:11:10;9.68;;;4.97;;
28483;SDS011;15704;48.834;8.736;2023-09-12T09:13:37;9.73;;;4.95;;
28483;SDS011;15704;48.834;8.736;2023-09-12T09:21:21;9.27;;;5.10;;
28483;SDS011;15704;48.834;8.736;2023-09-12T09:23:54;12.20;;;5.28;;
28483;SDS011;15704;48.834;8.736;2023-09-12T09:26:21;12.93;;;5.50;;
28483;SDS011;15704;48.834;8.736;2023-09-12T09:29:05;13.68;;;5.38;;
28483;SDS011;15704;48.834;8.736;2023-09-12T09:31:32;22.63;;;5.88;;
28483;SDS011;15704;48.834;8.736;2023-09-12T09:34:00;11.25;;;5.38;;
28483;SDS011;15704;48.834;8.736;2023-09-12T09:36:30;10.25;;;5.30;;
28483;SDS011;15704;48.834;8.736;2023-09-12T09:38:58;13.07;;;5.30;;
28483;SDS011;15704;48.834;8.736;2023-09-12T09:41:26;8.10;;;5.03;;
28483;SDS011;15704;48.834;8.736;2023-09-12T09:43:53;9.10;;;5.40;;
28483;SDS011;15704;48.834;8.736;2023-09-12T09:46:19;10.13;;;5.38;;
28483;SDS011;15704;48.834;8.736;2023-09-12T09:48:50;13.18;;;5.50;;
28483;SDS011;15704;48.834;8.736;2023-09-12T09:51:18;13.02;;;5.30;;
28483;SDS011;15704;48.834;8.736;2023-09-12T09:53:45;10.50;;;5.00;;
28483;SDS011;15704;48.834;8.736;2023-09-12T09:56:16;9.67;;;5.43;;
28483;SDS011;15704;48.834;8.736;2023-09-12T10:03:52;11.60;;;4.50;;
28483;SDS011;15704;48.834;8.736;2023-09-12T10:06:23;7.82;;;4.80;;
28483;SDS011;15704;48.834;8.736;2023-09-12T10:08:51;15.25;;;4.97;;
28483;SDS011;15704;48.834;8.736;2023-09-12T10:11:19;12.02;;;5.28;;
28483;SDS011;15704;48.834;8.736;2023-09-12T10:13:55;15.68;;;5.75;;
28483;SDS011;15704;48.834;8.736;2023-09-12T10:16:23;14.70;;;5.38;;
28483;SDS011;15704;48.834;8.736;2023-09-12T10:19:10;11.40;;;5.13;;
28483;SDS011;15704;48.834;8.736;2023-09-12T10:21:45;11.32;;;5.25;;
28483;SDS011;15704;48.834;8.736;2023-09-12T10:24:36;10.65;;;4.65;;
28483;SDS011;15704;48.834;8.736;2023-09-12T10:27:05;13.13;;;5.88;;
28483;SDS011;15704;48.834;8.736;2023-09-12T10:29:32;13.63;;;6.15;;
28483;SDS011;15704;48.834;8.736;2023-09-12T10:32:01;10.05;;;5.03;;
28483;SDS011;15704;48.834;8.736;2023-09-12T10:34:28;10.02;;;4.68;;
28483;SDS011;15704;48.834;8.736;2023-09-12T10:36:58;8.68;;;4.68;;
28483;SDS011;15704;48.834;8.736;2023-09-12T10:39:31;12.57;;;5.18;;
28483;SDS011;15704;48.834;8.736;2023-09-12T10:41:58;11.02;;;5.28;;
28483;SDS011;15704;48.834;8.736;2023-09-12T10:44:30;12.57;;;5.25;;
28483;SDS011;15704;48.834;8.736;2023-09-12T10:46:58;7.63;;;5.15;;
28483;SDS011;15704;48.834;8.736;2023-09-12T10:49:25;9.57;;;5.10;;
28483;SDS011;15704;48.834;8.736;2023-09-12T10:51:53;12.98;;;5.35;;
28483;SDS011;15704;48.834;8.736;2023-09-12T10:54:24;8.15;;;4.75;;
28483;SDS011;15704;48.834;8.736;2023-09-12T10:57:02;8.48;;;4.80;;
28483;SDS011;15704;48.834;8.736;2023-09-12T10:59:33;13.68;;;4.63;;
28483;SDS011;15704;48.834;8.736;2023-09-12T11:04:59;9.27;;;4.72;;
28483;SDS011;15704;48.834;8.736;2023-09-12T11:07:30;9.25;;;4.97;;
28483;SDS011;15704;48.834;8.736;2023-09-12T11:12:43;12.73;;;5.00;;
28483;SDS011;15704;48.834;8.736;2023-09-12T11:15:11;8.77;;;4.88;;
28483;SDS011;15704;48.834;8.736;2023-09-12T11:20:07;9.30;;;4.60;;
28483;SDS011;15704;48.834;8.736;2023-09-12T11:22:41;10.55;;;4.35;;
28483;SDS011;15704;48.834;8.736;2023-09-12T11:25:22;8.35;;;4.60;;
28483;SDS011;15704;48.834;8.736;2023-09-12T11:30:17;10.13;;;5.43;;
28483;SDS011;15704;48.834;8.736;2023-09-12T11:32:45;8.60;;;4.95;;
28483;SDS011;15704;48.834;8.736;2023-09-12T11:35:14;7.30;;;4.68;;
28483;SDS011;15704;48.834;8.736;2023-09-12T11:37:51;19.45;;;5.10;;
28483;SDS011;15704;48.834;8.736;2023-09-12T11:42:59;11.13;;;4.45;;
28483;SDS011;15704;48.834;8.736;2023-09-12T11:45:30;14.75;;;5.07;;
28483;SDS011;15704;48.834;8.736;2023-09-12T11:47:58;19.55;;;5.25;;
28483;SDS011;15704;48.834;8.736;2023-09-12T11:50:29;13.57;;;5.18;;
28483;SDS011;15704;48.834;8.736;2023-09-12T11:52:58;7.50;;;4.45;;
28483;SDS011;15704;48.834;8.736;2023-09-12T12:00:52;9.38;;;4.88;;
28483;SDS011;15704;48.834;8.736;2023-09-12T12:03:21;11.43;;;4.80;;
28483;SDS011;15704;48.834;8.736;2023-09-12T12:05:50;7.13;;;4.53;;
28483;SDS011;15704;48.834;8.736;2023-09-12T12:08:17;6.45;;;4.05;;
28483;SDS011;15704;48.834;8.736;2023-09-12T12:10:51;6.85;;;4.53;;
28483;SDS011;15704;48.834;8.736;2023-09-12T12:13:19;9.30;;;5.22;;
28483;SDS011;15704;48.834;8.736;2023-09-12T12:15:47;10.10;;;4.28;;
28483;SDS011;15704;48.834;8.736;2023-09-12T12:18:14;9.93;;;5.15;;
28483;SDS011;15704;48.834;8.736;2023-09-12T12:20:41;13.00;;;4.70;;
28483;SDS011;15704;48.834;8.736;2023-09-12T12:23:08;14.30;;;4.95;;
28483;SDS011;15704;48.834;8.736;2023-09-12T12:25:35;7.10;;;4.80;;
28483;SDS011;15704;48.834;8.736;2023-09-12T12:28:02;15.00;;;4.93;;
28483;SDS011;15704;48.834;8.736;2023-09-12T12:30:31;9.23;;;4.55;;
28483;SDS011;15704;48.834;8.736;2023-09-12T12:33:00;7.40;;;4.68;;
28483;SDS011;15704;48.834;8.736;2023-09-12T12:35:48;13.60;;;5.00;;
28483;SDS011;15704;48.834;8.736;2023-09-12T12:38:21;9.40;;;5.10;;
28483;SDS011;15704;48.834;8.736;2023-09-12T12:40:48;19.15;;;4.88;;
28483;SDS011;15704;48.834;8.736;2023-09-12T12:43:18;5.90;;;4.55;;
28483;SDS011;15704;48.834;8.736;2023-09-12T12:45:53;11.15;;;5.15;;
28483;SDS011;15704;48.834;8.736;2023-09-12T12:48:34;12.77;;;4.88;;
28483;SDS011;15704;48.834;8.736;2023-09-12T12:51:13;12.05;;;4.80;;
28483;SDS011;15704;48.834;8.736;2023-09-12T12:53:44;7.95;;;4.82;;
28483;SDS011;15704;48.834;8.736;2023-09-12T12:56:26;13.75;;;5.28;;
28483;SDS011;15704;48.834;8.736;2023-09-12T12:59:00;8.00;;;4.70;;
28483;SDS011;15704;48.834;8.736;2023-09-12T13:01:36;12.30;;;5.00;;
28483;SDS011;15704;48.834;8.736;2023-09-12T13:04:05;5.45;;;4.05;;
28483;SDS011;15704;48.834;8.736;2023-09-12T13:06:33;10.00;;;5.00;;
28483;SDS011;15704;48.834;8.736;2023-09-12T13:09:04;6.90;;;4.50;;
28483;SDS011;15704;48.834;8.736;2023-09-12T13:11:32;13.52;;;5.10;;
28483;SDS011;15704;48.834;8.736;2023-09-12T13:14:01;10.00;;;4.60;;
28483;SDS011;15704;48.834;8.736;2023-09-12T13:16:29;8.98;;;4.47;;
28483;SDS011;15704;48.834;8.736;2023-09-12T13:18:56;10.35;;;4.53;;
28483;SDS011;15704;48.834;8.736;2023-09-12T13:21:22;7.72;;;4.63;;
28483;SDS011;15704;48.834;8.736;2023-09-12T13:23:52;8.75;;;5.40;;
28483;SDS011;15704;48.834;8.736;2023-09-12T13:26:19;12.55;;;5.35;;
28483;SDS011;15704;48.834;8.736;2023-09-12T13:28:46;10.75;;;4.65;;
28483;SDS011;15704;48.834;8.736;2023-09-12T13:31:12;7.82;;;4.70;;
28483;SDS011;15704;48.834;8.736;2023-09-12T13:33:39;6.53;;;4.13;;
28483;SDS011;15704;48.834;8.736;2023-09-12T13:36:09;8.57;;;4.80;;
28483;SDS011;15704;48.834;8.736;2023-09-12T13:38:35;14.35;;;4.63;;
28483;SDS011;15704;48.834;8.736;2023-09-12T13:41:02;5.10;;;4.05;;
28483;SDS011;15704;48.834;8.736;2023-09-12T13:43:29;10.07;;;3.97;;
28483;SDS011;15704;48.834;8.736;2023-09-12T13:45:56;8.98;;;4.55;;
28483;SDS011;15704;48.834;8.736;2023-09-12T13:48:23;7.68;;;4.35;;
28483;SDS011;15704;48.834;8.736;2023-09-12T13:50:50;12.30;;;4.35;;
28483;SDS011;15704;48.834;8.736;2023-09-12T13:53:17;7.30;;;4.30;;
28483;SDS011;15704;48.834;8.736;2023-09-12T13:55:43;11.32;;;5.15;;
28483;SDS011;15704;48.834;8.736;2023-09-12T13:58:30;9.07;;;4.35;;
28483;SDS011;15704;48.834;8.736;2023-09-12T14:01:12;7.43;;;4.35;;
28483;SDS011;15704;48.834;8.736;2023-09-12T14:03:56;9.38;;;4.35;;
28483;SDS011;15704;48.834;8.736;2023-09-12T14:06:23;6.07;;;4.25;;
28483;SDS011;15704;48.834;8.736;2023-09-12T14:08:51;7.15;;;3.85;;
28483;SDS011;15704;48.834;8.736;2023-09-12T14:11:20;22.27;;;5.82;;
28483;SDS011;15704;48.834;8.736;2023-09-12T14:13:59;9.38;;;4.20;;
28483;SDS011;15704;48.834;8.736;2023-09-12T14:16:41;8.98;;;3.88;;
28483;SDS011;15704;48.834;8.736;2023-09-12T14:21:39;5.53;;;3.95;;
28483;SDS011;15704;48.834;8.736;2023-09-12T14:24:07;9.75;;;5.03;;
28483;SDS011;15704;48.834;8.736;2023-09-12T14:26:35;12.35;;;5.25;;
28483;SDS011;15704;48.834;8.736;2023-09-12T14:29:04;10.57;;;4.40;;
28483;SDS011;15704;48.834;8.736;2023-09-12T14:31:31;13.32;;;5.28;;
28483;SDS011;15704;48.834;8.736;2023-09-12T14:33:58;19.13;;;5.15;;
28483;SDS011;15704;48.834;8.736;2023-09-12T14:36:25;15.45;;;4.80;;
28483;SDS011;15704;48.834;8.736;2023-09-12T14:38:52;10.50;;;4.90;;
28483;SDS011;15704;48.834;8.736;2023-09-12T14:41:19;6.28;;;3.92;;
28483;SDS011;15704;48.834;8.736;2023-09-12T14:43:45;14.13;;;4.72;;
28483;SDS011;15704;48.834;8.736;2023-09-12T14:46:12;12.98;;;3.90;;
28483;SDS011;15704;48.834;8.736;2023-09-12T14:48:39;7.93;;;4.53;;
28483;SDS011;15704;48.834;8.736;2023-09-12T14:51:11;9.20;;;4.32;;
28483;SDS011;15704;48.834;8.736;2023-09-12T14:53:51;5.78;;;4.32;;
28483;SDS011;15704;48.834;8.736;2023-09-12T14:56:18;7.47;;;4.38;;
28483;SDS011;15704;48.834;8.736;2023-09-12T14:58:45;6.90;;;4.05;;
28483;SDS011;15704;48.834;8.736;2023-09-12T15:01:12;5.65;;;3.95;;
28483;SDS011;15704;48.834;8.736;2023-09-12T15:03:38;12.55;;;5.25;;
28483;SDS011;15704;48.834;8.736;2023-09-12T15:06:06;9.05;;;4.85;;
28483;SDS011;15704;48.834;8.736;2023-09-12T15:08:33;4.68;;;3.92;;
28483;SDS011;15704;48.834;8.736;2023-09-12T15:11:02;7.07;;;4.20;;
28483;SDS011;15704;48.834;8.736;2023-09-12T15:13:29;7.10;;;4.32;;
28483;SDS011;15704;48.834;8.736;2023-09-12T15:15:56;6.10;;;4.65;;
28483;SDS011;15704;48.834;8.736;2023-09-12T15:18:23;7.35;;;4.35;;
28483;SDS011;15704;48.834;8.736;2023-09-12T15:20:51;11.32;;;4.57;;
28483;SDS011;15704;48.834;8.736;2023-09-12T15:23:19;10.30;;;4.85;;
28483;SDS011;15704;48.834;8.736;2023-09-12T15:25:49;8.68;;;3.90;;
28483;SDS011;15704;48.834;8.736;2023-09-12T15:28:16;7.78;;;4.57;;
28483;SDS011;15704;48.834;8.736;2023-09-12T15:30:43;15.30;;;3.92;;
28483;SDS011;15704;48.834;8.736;2023-09-12T15:33:11;14.90;;;4.65;;
28483;SDS011;15704;48.834;8.736;2023-09-12T15:35:38;7.45;;;4.03;;
28483;SDS011;15704;48.834;8.736;2023-09-12T15:38:05;6.22;;;4.15;;